Time;durP1;ratioP1;P1;durP2;ratioP2;P2;SDS_P1;SDS_P2;PMS_P1;PMS_P2;Temp;Humidity;BMP_temperature;BMP_pressure;BME280_temperature;BME280_humidity;BME280_pressure;Samples;Min_cycle;Max_cycle;Signal;HPM_P1;HPM_P2
2022/10/29 00:00:17;;;;;;;30.60;12.98;;;;;;;16.19;99.75;101449.41;5030981;28;20136;-77
2022/10/29 00:02:44;;;;;;;25.00;12.75;;;;;;;16.16;99.70;101444.47;5029496;28;20492;-77
2022/10/29 00:05:11;;;;;;;24.73;12.13;;;;;;;16.16;99.93;101450.59;5031627;28;20302;-77
2022/10/29 00:07:40;;;;;;;21.42;11.23;;;;;;;16.16;99.82;101442.66;5031241;28;20080;-78
2022/10/29 00:10:11;;;;;;;28.42;11.73;;;;;;;16.14;99.61;101447.28;5030641;28;20123;-78
2022/10/29 00:12:37;;;;;;;22.27;11.55;;;;;;;16.23;99.17;101451.53;5031186;28;20513;-78
2022/10/29 00:15:09;;;;;;;21.58;11.15;;;;;;;16.17;99.12;101449.59;5031591;28;20056;-78
2022/10/29 00:17:37;;;;;;;22.65;12.25;;;;;;;16.16;99.04;101447.94;5021233;28;20060;-77
2022/10/29 00:20:05;;;;;;;25.38;11.73;;;;;;;16.15;99.26;101448.94;5030200;28;20133;-77
2022/10/29 00:22:32;;;;;;;24.65;11.70;;;;;;;16.21;98.60;101456.16;5030859;28;20132;-77
2022/10/29 00:24:59;;;;;;;26.58;12.50;;;;;;;16.27;97.95;101458.13;5030519;28;20128;-77
2022/10/29 00:27:26;;;;;;;27.42;11.10;;;;;;;16.22;97.91;101470.19;5030323;28;20132;-77
2022/10/29 00:29:54;;;;;;;21.92;11.23;;;;;;;16.23;98.39;101456.81;5029074;28;20456;-77
2022/10/29 00:32:21;;;;;;;29.30;11.52;;;;;;;16.26;98.30;101453.00;5029836;28;20427;-78
2022/10/29 00:34:49;;;;;;;25.15;10.98;;;;;;;16.24;98.26;101447.91;5031142;28;20101;-78
2022/10/29 00:37:15;;;;;;;24.88;12.52;;;;;;;16.29;98.19;101454.50;5029362;28;20037;-77
2022/10/29 00:39:42;;;;;;;19.15;11.77;;;;;;;16.14;98.58;101457.03;5028896;28;20506;-77
2022/10/29 00:42:14;;;;;;;27.88;11.63;;;;;;;16.09;99.12;101468.09;5030656;28;20051;-77
2022/10/29 00:44:41;;;;;;;18.35;10.77;;;;;;;16.03;99.43;101476.72;5030638;28;20169;-75
2022/10/29 00:47:19;;;;;;;19.55;11.20;;;;;;;16.02;100.00;101469.81;5030379;28;20081;-78
2022/10/29 00:49:50;;;;;;;23.23;11.38;;;;;;;15.95;100.00;101466.19;5020868;28;20053;-78
2022/10/29 00:52:19;;;;;;;30.10;11.60;;;;;;;15.94;100.00;101461.91;5030450;28;20072;-77
2022/10/29 00:54:48;;;;;;;25.38;12.40;;;;;;;15.93;100.00;101453.16;5029627;28;20432;-78
2022/10/29 00:57:20;;;;;;;22.90;11.38;;;;;;;16.01;99.68;101462.06;5030049;28;20145;-78
2022/10/29 00:59:48;;;;;;;25.65;12.13;;;;;;;15.99;100.00;101456.13;5029394;28;20157;-76
2022/10/29 01:02:17;;;;;;;26.90;11.55;;;;;;;15.84;100.00;101453.38;5031228;28;20523;-77
2022/10/29 01:04:45;;;;;;;21.98;11.50;;;;;;;15.79;100.00;101453.88;5030708;28;20049;-77
2022/10/29 01:07:13;;;;;;;20.33;11.77;;;;;;;15.68;100.00;101448.97;5021111;28;20084;-76
2022/10/29 01:09:40;;;;;;;26.40;12.10;;;;;;;15.63;100.00;101448.63;5032494;28;20045;-78
2022/10/29 01:12:29;;;;;;;22.40;11.35;;;;;;;15.54;100.00;101450.47;5033371;28;20054;-79
2022/10/29 01:15:07;;;;;;;30.77;11.88;;;;;;;15.48;100.00;101456.41;5013712;28;20096;-77
2022/10/29 01:17:45;;;;;;;23.15;12.02;;;;;;;15.45;100.00;101443.56;5033600;28;20049;-79
2022/10/29 01:20:43;;;;;;;23.92;11.35;;;;;;;15.49;100.00;101442.22;5033633;28;20152;-78
2022/10/29 01:23:28;;;;;;;26.33;11.18;;;;;;;15.48;100.00;101430.03;5033138;28;20056;-79
2022/10/29 01:26:18;;;;;;;23.83;12.18;;;;;;;15.50;100.00;101441.25;5033225;28;20068;-78
2022/10/29 01:29:05;;;;;;;17.83;10.68;;;;;;;15.46;100.00;101453.13;5033179;28;20179;-78
2022/10/29 01:31:36;;;;;;;30.75;12.07;;;;;;;15.45;100.00;101448.84;5033036;28;20534;-78
2022/10/29 01:34:12;;;;;;;20.23;11.30;;;;;;;15.38;100.00;101441.75;5034283;28;20129;-79
2022/10/29 01:36:44;;;;;;;19.52;11.57;;;;;;;15.31;100.00;101446.03;5033751;28;20296;-78
2022/10/29 01:39:20;;;;;;;20.25;11.60;;;;;;;15.28;100.00;101444.56;5033538;28;20041;-79
2022/10/29 01:41:53;;;;;;;22.95;11.93;;;;;;;15.21;100.00;101444.41;5034699;28;20053;-80
2022/10/29 01:44:29;;;;;;;29.13;12.18;;;;;;;15.24;100.00;101432.69;5034978;28;20115;-77
2022/10/29 01:47:01;;;;;;;25.98;11.38;;;;;;;15.24;100.00;101430.88;5037017;28;20133;-80
2022/10/29 01:49:32;;;;;;;19.02;11.80;;;;;;;15.26;100.00;101425.44;5038118;28;20125;-80
2022/10/29 01:52:01;;;;;;;24.42;10.95;;;;;;;15.25;100.00;101418.53;5036175;28;20049;-81
2022/10/29 01:54:28;;;;;;;28.95;12.35;;;;;;;15.18;100.00;101412.28;5033964;28;20073;-79
2022/10/29 01:56:56;;;;;;;25.38;12.70;;;;;;;15.15;100.00;101418.69;5033493;28;20162;-76
2022/10/29 01:59:27;;;;;;;20.13;11.00;;;;;;;15.14;100.00;101416.22;5032602;28;20083;-78
2022/10/29 02:02:08;;;;;;;24.05;11.23;;;;;;;15.23;100.00;101426.59;5033044;28;20059;-78
2022/10/29 02:04:50;;;;;;;21.75;11.27;;;;;;;15.16;100.00;101419.53;5033446;28;20053;-78
2022/10/29 02:07:26;;;;;;;23.67;12.57;;;;;;;15.02;100.00;101421.03;5033187;28;20154;-79
2022/10/29 02:10:00;;;;;;;23.70;11.88;;;;;;;14.99;100.00;101416.09;5032798;28;20288;-76
2022/10/29 02:12:33;;;;;;;25.80;11.43;;;;;;;15.00;100.00;101415.09;5032678;28;20064;-78
2022/10/29 02:15:05;;;;;;;26.58;12.50;;;;;;;15.00;100.00;101409.84;5032972;28;20137;-78
2022/10/29 02:17:35;;;;;;;27.60;11.95;;;;;;;14.88;100.00;101401.44;5032424;28;20092;-79
2022/10/29 02:20:12;;;;;;;18.88;11.55;;;;;;;14.89;100.00;101408.34;5032473;28;20060;-79
2022/10/29 02:22:46;;;;;;;21.15;11.23;;;;;;;14.90;100.00;101404.72;5033242;28;20077;-78
2022/10/29 02:25:20;;;;;;;27.10;11.52;;;;;;;14.91;100.00;101405.56;5032733;28;20088;-76
2022/10/29 02:27:49;;;;;;;22.75;11.82;;;;;;;14.90;100.00;101394.19;5077566;22;20697;-78
2022/10/29 02:30:50;;;;;;;18.73;11.18;;;;;;;15.00;100.00;101395.84;5012491;28;20097;-78
2022/10/29 02:36:27;;;;;;;27.30;11.70;;;;;;;14.90;100.00;101399.47;5011365;28;20055;-76
2022/10/29 02:39:14;;;;;;;28.50;13.52;;;;;;;14.79;100.00;101383.97;5011631;28;20081;-77
2022/10/29 02:41:40;;;;;;;24.45;12.30;;;;;;;14.86;100.00;101403.41;5038124;22;20042;-81
2022/10/29 02:44:07;;;;;;;22.67;11.35;;;;;;;14.80;100.00;101403.25;5021247;28;20084;-81
2022/10/29 02:46:38;;;;;;;19.77;11.38;;;;;;;14.66;100.00;101385.44;5021770;28;20054;-80
2022/10/29 02:49:06;;;;;;;19.15;11.15;;;;;;;14.73;100.00;101408.34;5021760;28;20061;-80
2022/10/29 02:51:32;;;;;;;24.27;11.93;;;;;;;14.70;100.00;101408.66;5023787;28;20137;-80
2022/10/29 02:53:59;;;;;;;23.02;11.88;;;;;;;14.65;100.00;101397.81;5024317;28;20077;-80
2022/10/29 02:56:26;;;;;;;22.98;11.52;;;;;;;14.60;100.00;101398.31;5025047;28;20073;-79
2022/10/29 02:58:52;;;;;;;27.80;12.45;;;;;;;14.58;100.00;101399.47;5024663;28;20113;-80
2022/10/29 03:01:19;;;;;;;34.85;12.27;;;;;;;14.54;100.00;101403.41;5024596;28;20133;-80
2022/10/29 03:03:45;;;;;;;19.25;11.18;;;;;;;14.51;100.00;101406.38;5025266;28;20081;-80
2022/10/29 03:06:14;;;;;;;27.08;11.32;;;;;;;14.47;100.00;101392.69;5025907;28;20080;-80
2022/10/29 03:08:41;;;;;;;24.30;11.85;;;;;;;14.49;100.00;101385.47;5025405;28;20045;-80
2022/10/29 03:11:07;;;;;;;26.58;12.15;;;;;;;14.44;100.00;101379.84;5025820;28;20054;-80
2022/10/29 03:13:34;;;;;;;29.08;12.10;;;;;;;14.43;100.00;101380.84;5025222;28;20130;-80
2022/10/29 03:16:01;;;;;;;23.27;12.20;;;;;;;14.45;100.00;101378.06;5024180;28;20117;-80
2022/10/29 03:18:27;;;;;;;25.90;12.98;;;;;;;14.46;100.00;101382.34;5025149;28;20077;-80
2022/10/29 03:20:54;;;;;;;27.80;12.18;;;;;;;14.43;100.00;101380.03;5025737;28;20089;-80
2022/10/29 03:23:22;;;;;;;24.13;12.38;;;;;;;14.38;100.00;101377.00;5025207;28;20073;-79
2022/10/29 03:25:51;;;;;;;28.15;12.73;;;;;;;14.33;100.00;101363.50;5023974;28;20087;-80
2022/10/29 03:28:17;;;;;;;27.25;12.65;;;;;;;14.35;100.00;101367.63;5024578;28;20053;-79
2022/10/29 03:30:44;;;;;;;28.33;13.23;;;;;;;14.36;100.00;101365.81;5025263;28;20101;-80
2022/10/29 03:33:10;;;;;;;25.40;11.45;;;;;;;14.27;100.00;101359.72;5024756;28;20124;-78
2022/10/29 03:35:37;;;;;;;23.63;12.23;;;;;;;14.21;100.00;101342.75;5025884;28;20073;-80
2022/10/29 03:38:03;;;;;;;27.05;12.57;;;;;;;14.23;100.00;101343.41;5024984;28;20081;-79
2022/10/29 03:40:31;;;;;;;24.75;12.95;;;;;;;14.22;100.00;101351.47;5026778;28;20581;-80
2022/10/29 03:42:58;;;;;;;25.27;12.55;;;;;;;14.20;100.00;101346.38;5025349;28;20073;-80
2022/10/29 03:45:25;;;;;;;23.80;13.35;;;;;;;14.24;100.00;101350.34;5025429;28;20054;-80
2022/10/29 03:47:51;;;;;;;27.58;12.75;;;;;;;14.33;100.00;101352.97;5025147;28;20073;-80
2022/10/29 03:50:18;;;;;;;30.20;14.07;;;;;;;14.31;100.00;101344.41;5025621;28;20105;-80
2022/10/29 03:52:44;;;;;;;24.45;12.23;;;;;;;14.32;100.00;101364.50;5026446;28;20069;-81
2022/10/29 03:55:11;;;;;;;23.38;11.70;;;;;;;14.23;100.00;101358.38;5026620;28;20105;-80
2022/10/29 03:57:39;;;;;;;25.50;12.32;;;;;;;14.17;100.00;101359.88;5028154;28;20050;-81
2022/10/29 04:00:07;;;;;;;26.00;12.70;;;;;;;14.11;100.00;101350.00;5028509;28;20226;-79
2022/10/29 04:02:33;;;;;;;29.17;12.52;;;;;;;14.09;100.00;101359.88;5025415;28;20081;-79
2022/10/29 04:05:00;;;;;;;27.20;13.43;;;;;;;14.04;100.00;101364.78;5027443;28;20054;-80
2022/10/29 04:07:26;;;;;;;25.90;11.90;;;;;;;14.13;100.00;101366.47;5025825;28;20132;-80
2022/10/29 04:09:53;;;;;;;27.30;12.48;;;;;;;14.11;100.00;101365.78;5023041;28;20137;-79
2022/10/29 04:12:19;;;;;;;28.08;12.77;;;;;;;14.08;100.00;101358.22;5023686;28;20081;-80
2022/10/29 04:14:48;;;;;;;24.75;11.82;;;;;;;14.14;100.00;101348.84;5024719;28;20137;-81
2022/10/29 04:17:14;;;;;;;20.10;12.23;;;;;;;14.14;100.00;101360.22;5023887;28;20479;-80
2022/10/29 04:19:41;;;;;;;22.00;12.43;;;;;;;14.14;100.00;101367.28;5024347;28;20105;-80
2022/10/29 04:22:07;;;;;;;27.52;12.23;;;;;;;14.10;100.00;101361.50;5024318;28;20133;-80
2022/10/29 04:24:34;;;;;;;28.38;12.48;;;;;;;14.08;100.00;101360.84;5024261;28;20105;-80
2022/10/29 04:27:01;;;;;;;23.55;12.15;;;;;;;14.05;100.00;101358.53;5024944;28;20053;-80
2022/10/29 04:29:27;;;;;;;28.95;13.18;;;;;;;14.01;100.00;101348.50;5023135;28;20046;-79
2022/10/29 04:31:55;;;;;;;19.83;12.70;;;;;;;13.97;100.00;101337.47;5022645;28;20118;-80
2022/10/29 04:34:22;;;;;;;30.73;12.20;;;;;;;13.94;100.00;101341.25;5023120;28;20136;-79
2022/10/29 04:36:48;;;;;;;22.98;11.70;;;;;;;13.95;100.00;101323.66;5024666;28;20084;-79
2022/10/29 04:39:15;;;;;;;25.20;12.27;;;;;;;14.03;100.00;101296.53;5025568;28;20085;-79
2022/10/29 04:41:41;;;;;;;25.58;12.52;;;;;;;14.11;100.00;101281.56;5027454;28;20113;-79
2022/10/29 04:44:08;;;;;;;28.52;12.85;;;;;;;14.18;100.00;101308.03;5026661;28;20105;-80
2022/10/29 04:46:35;;;;;;;26.27;12.05;;;;;;;14.12;100.00;101314.81;5026368;28;20084;-80
2022/10/29 04:49:03;;;;;;;22.98;11.60;;;;;;;14.16;100.00;101321.41;5026202;28;20473;-80
2022/10/29 04:51:30;;;;;;;20.80;12.38;;;;;;;14.22;100.00;101331.25;5027119;28;20425;-79
2022/10/29 04:53:56;;;;;;;26.67;12.52;;;;;;;14.24;100.00;101334.53;5026679;28;20109;-78
2022/10/29 04:56:23;;;;;;;24.13;12.32;;;;;;;14.24;100.00;101316.13;5026427;28;20073;-79
2022/10/29 04:58:51;;;;;;;26.27;12.30;;;;;;;14.17;100.00;101317.78;5026168;28;20136;-79
2022/10/29 05:01:18;;;;;;;26.90;12.32;;;;;;;14.08;100.00;101310.03;5027387;28;20050;-78
2022/10/29 05:03:45;;;;;;;25.13;12.30;;;;;;;14.00;100.00;101310.00;5025812;28;20069;-79
2022/10/29 05:06:13;;;;;;;24.70;11.48;;;;;;;13.94;100.00;101306.22;5026413;28;20046;-79
2022/10/29 05:08:39;;;;;;;21.67;12.38;;;;;;;13.89;100.00;101300.59;5025740;28;20085;-78
2022/10/29 05:11:06;;;;;;;25.17;13.25;;;;;;;13.88;100.00;101302.41;5025381;28;20050;-78
2022/10/29 05:13:34;;;;;;;24.83;12.48;;;;;;;13.87;100.00;101295.50;5024897;28;20179;-78
2022/10/29 05:16:00;;;;;;;26.77;13.52;;;;;;;13.94;100.00;101296.50;5024725;28;20096;-78
2022/10/29 05:18:27;;;;;;;23.30;12.82;;;;;;;13.94;100.00;101303.59;5025099;28;20093;-77
2022/10/29 05:20:54;;;;;;;23.88;12.48;;;;;;;13.95;100.00;101306.06;5031290;28;20429;-77
2022/10/29 05:23:23;;;;;;;30.05;12.88;;;;;;;13.97;100.00;101308.53;5032037;28;20563;-78
2022/10/29 05:25:51;;;;;;;21.58;11.60;;;;;;;13.90;100.00;101304.88;5032224;28;20078;-77
2022/10/29 05:28:19;;;;;;;26.55;13.70;;;;;;;13.94;100.00;101306.22;5026168;28;20056;-78
2022/10/29 05:30:47;;;;;;;27.45;12.23;;;;;;;13.99;100.00;101306.56;5024763;28;20124;-79
2022/10/29 05:33:15;;;;;;;24.92;12.35;;;;;;;14.06;100.00;101312.81;5024744;28;20061;-79
2022/10/29 05:35:42;;;;;;;26.85;11.65;;;;;;;14.03;100.00;101299.16;5024554;28;20117;-79
2022/10/29 05:38:09;;;;;;;31.08;12.07;;;;;;;14.00;100.00;101310.84;5023905;28;20114;-79
2022/10/29 05:40:38;;;;;;;29.23;12.23;;;;;;;14.04;100.00;101306.06;5024490;28;20114;-79
2022/10/29 05:43:05;;;;;;;24.58;13.45;;;;;;;14.04;100.00;101311.34;5024201;28;20088;-81
2022/10/29 05:45:31;;;;;;;28.40;13.15;;;;;;;13.95;100.00;101311.31;5027867;28;20049;-79
2022/10/29 05:47:59;;;;;;;22.40;11.55;;;;;;;13.95;100.00;101308.69;5024038;28;20318;-77
2022/10/29 05:50:27;;;;;;;29.33;11.98;;;;;;;13.93;100.00;101300.13;5025495;28;20073;-79
2022/10/29 05:52:57;;;;;;;31.65;11.23;;;;;;;13.85;100.00;101300.09;5023103;28;20117;-79
2022/10/29 05:55:24;;;;;;;24.02;12.38;;;;;;;13.79;100.00;101294.66;5024793;28;20080;-79
2022/10/29 05:57:55;;;;;;;23.55;12.90;;;;;;;13.81;100.00;101297.97;5025194;28;20114;-79
2022/10/29 06:00:22;;;;;;;29.08;12.30;;;;;;;13.77;100.00;101292.19;5025357;28;20066;-80
2022/10/29 06:02:48;;;;;;;22.85;12.57;;;;;;;13.88;100.00;101296.34;5026285;28;20050;-78
2022/10/29 06:05:15;;;;;;;22.80;11.93;;;;;;;13.89;100.00;101292.72;5025396;28;20133;-78
2022/10/29 06:07:41;;;;;;;23.73;11.73;;;;;;;13.95;100.00;101292.06;5024407;28;20109;-79
2022/10/29 06:10:08;;;;;;;22.05;11.75;;;;;;;13.94;100.00;101296.50;5021221;28;20046;-79
2022/10/29 06:12:35;;;;;;;28.45;11.52;;;;;;;14.00;100.00;101295.03;5021135;28;20062;-78
2022/10/29 06:15:03;;;;;;;25.52;12.18;;;;;;;14.06;100.00;101298.84;5021595;28;20060;-78
2022/10/29 06:17:30;;;;;;;25.95;11.52;;;;;;;14.03;100.00;101283.38;5022838;28;20366;-78
2022/10/29 06:19:56;;;;;;;33.22;12.40;;;;;;;14.07;100.00;101289.97;5021812;28;20416;-77
2022/10/29 06:22:23;;;;;;;20.35;11.90;;;;;;;14.10;100.00;101289.63;5018144;28;20132;-78
2022/10/29 06:24:49;;;;;;;31.52;12.95;;;;;;;14.14;100.00;101283.06;5019120;28;20256;-78
2022/10/29 06:27:16;;;;;;;28.50;12.27;;;;;;;14.19;100.00;101281.56;5020147;28;20156;-79
2022/10/29 06:29:43;;;;;;;28.08;12.18;;;;;;;14.21;100.00;101276.97;5022562;28;20122;-79
2022/10/29 06:32:11;;;;;;;25.70;11.48;;;;;;;14.25;100.00;101270.38;5022790;28;20050;-78
2022/10/29 06:34:37;;;;;;;31.38;12.07;;;;;;;14.23;100.00;101264.44;5022954;28;20080;-82
2022/10/29 06:37:04;;;;;;;23.65;11.30;;;;;;;14.30;100.00;101267.25;5023311;28;20053;-78
2022/10/29 06:39:30;;;;;;;23.80;11.75;;;;;;;14.38;100.00;101263.81;5021582;28;20113;-78
2022/10/29 06:41:57;;;;;;;23.60;10.55;;;;;;;14.39;100.00;101261.00;5021614;28;20494;-78
2022/10/29 06:44:23;;;;;;;22.40;11.98;;;;;;;14.38;100.00;101276.97;5022830;28;20049;-79
2022/10/29 06:46:50;;;;;;;23.55;12.23;;;;;;;14.37;100.00;101284.03;5022313;28;20153;-80
2022/10/29 06:49:18;;;;;;;31.52;13.38;;;;;;;14.41;100.00;101290.66;5023439;28;20050;-79
2022/10/29 06:51:45;;;;;;;23.88;10.50;;;;;;;14.44;100.00;101302.66;5021593;28;20140;-79
2022/10/29 06:54:11;;;;;;;20.92;11.32;;;;;;;14.42;100.00;101299.38;5020471;28;20084;-78
2022/10/29 06:56:38;;;;;;;24.85;11.43;;;;;;;14.39;100.00;101303.13;5021532;28;20085;-80
2022/10/29 06:59:05;;;;;;;22.98;11.25;;;;;;;14.33;100.00;101295.88;5020664;28;20132;-79
2022/10/29 07:01:32;;;;;;;24.23;11.65;;;;;;;14.29;100.00;101308.56;5025201;28;20101;-79
2022/10/29 07:03:59;;;;;;;21.75;10.55;;;;;;;14.35;100.00;101301.81;5025964;28;20056;-79
2022/10/29 07:06:28;;;;;;;24.52;11.75;;;;;;;14.27;100.00;101310.53;5023519;28;20057;-81
2022/10/29 07:08:54;;;;;;;27.25;11.23;;;;;;;14.28;100.00;101300.81;5022590;28;20061;-80
2022/10/29 07:11:21;;;;;;;22.65;11.50;;;;;;;14.26;100.00;101295.72;5023364;28;20441;-79
2022/10/29 07:13:47;;;;;;;25.10;11.35;;;;;;;14.34;100.00;101291.44;5023477;28;20111;-78
2022/10/29 07:16:14;;;;;;;30.83;12.02;;;;;;;14.33;100.00;101287.16;5023690;28;20085;-78
2022/10/29 07:18:41;;;;;;;23.60;11.75;;;;;;;14.41;100.00;101292.44;5024397;28;20054;-79
2022/10/29 07:21:08;;;;;;;24.17;11.05;;;;;;;14.49;100.00;101298.56;5025018;28;20088;-78
2022/10/29 07:23:36;;;;;;;25.83;11.43;;;;;;;14.58;100.00;101309.91;5023700;28;20054;-79
2022/10/29 07:26:03;;;;;;;27.80;10.82;;;;;;;14.63;100.00;101323.41;5023883;28;20069;-79
2022/10/29 07:28:29;;;;;;;24.35;11.13;;;;;;;14.63;100.00;101328.69;5023466;28;20050;-79
2022/10/29 07:30:59;;;;;;;25.27;11.93;;;;;;;14.64;100.00;101325.06;5023969;28;20049;-80
2022/10/29 07:33:28;;;;;;;22.15;10.68;;;;;;;14.64;100.00;101325.06;5023333;28;20088;-80
2022/10/29 07:35:56;;;;;;;26.95;10.73;;;;;;;14.70;100.00;101326.19;5024276;28;20058;-79
2022/10/29 07:38:23;;;;;;;26.90;12.18;;;;;;;14.81;100.00;101328.47;5023733;28;20081;-80
2022/10/29 07:40:52;;;;;;;22.55;11.32;;;;;;;14.88;100.00;101325.03;5023681;28;20084;-80
2022/10/29 07:43:19;;;;;;;22.70;11.05;;;;;;;14.99;100.00;101317.75;5023489;28;20132;-80
2022/10/29 07:45:48;;;;;;;26.90;11.13;;;;;;;15.18;100.00;101325.28;5022998;28;20149;-80
2022/10/29 07:48:15;;;;;;;21.58;10.40;;;;;;;15.39;100.00;101332.63;5024139;28;20042;-80
2022/10/29 07:50:42;;;;;;;30.98;11.13;;;;;;;15.51;100.00;101324.19;5022075;28;20081;-81
2022/10/29 07:53:10;;;;;;;20.85;10.40;;;;;;;15.42;100.00;101324.38;5021893;28;20089;-81
2022/10/29 07:55:37;;;;;;;23.55;10.40;;;;;;;15.42;100.00;101321.75;5022520;28;20425;-81
2022/10/29 07:58:07;;;;;;;20.33;10.43;;;;;;;15.37;100.00;101311.72;5021000;28;20053;-81
2022/10/29 08:00:35;;;;;;;28.02;11.30;;;;;;;15.37;100.00;101316.16;5022580;28;20097;-82
2022/10/29 08:03:02;;;;;;;22.42;10.50;;;;;;;15.39;100.00;101306.28;5022581;28;20117;-82
2022/10/29 08:05:30;;;;;;;19.88;10.00;;;;;;;15.39;100.00;101315.00;5021267;28;20054;-80
2022/10/29 08:07:57;;;;;;;20.55;10.82;;;;;;;15.46;100.00;101304.59;5020032;28;20133;-81
2022/10/29 08:10:25;;;;;;;22.95;10.48;;;;;;;15.52;100.00;101315.28;5020816;28;20496;-81
2022/10/29 08:12:52;;;;;;;28.98;11.43;;;;;;;15.59;100.00;101310.19;5023771;28;20145;-81
2022/10/29 08:15:21;;;;;;;19.55;10.77;;;;;;;15.66;100.00;101318.19;5024245;28;20050;-81
2022/10/29 08:17:48;;;;;;;26.63;11.27;;;;;;;15.65;100.00;101311.28;5025277;28;20575;-79
2022/10/29 08:20:16;;;;;;;27.23;11.10;;;;;;;15.67;100.00;101304.84;5025389;28;20084;-81
2022/10/29 08:22:42;;;;;;;24.60;10.85;;;;;;;15.72;100.00;101309.59;5026773;28;20151;-81
2022/10/29 08:25:09;;;;;;;26.55;10.80;;;;;;;15.71;100.00;101303.50;5026459;28;20077;-81
2022/10/29 08:27:36;;;;;;;31.38;11.55;;;;;;;15.74;100.00;101307.59;5026259;28;20129;-82
2022/10/29 08:30:03;;;;;;;25.70;10.77;;;;;;;15.75;100.00;101299.53;5025468;28;20065;-81
2022/10/29 08:32:31;;;;;;;28.30;10.55;;;;;;;15.79;100.00;101295.53;5026423;28;20308;-80
2022/10/29 08:34:57;;;;;;;21.25;11.13;;;;;;;15.88;100.00;101298.97;5027880;28;20057;-81
2022/10/29 08:37:24;;;;;;;29.13;10.05;;;;;;;16.09;100.00;101312.34;5025016;28;20057;-82
2022/10/29 08:39:51;;;;;;;25.63;10.93;;;;;;;16.09;99.18;101299.13;5019980;28;20129;-79
2022/10/29 08:43:15;;;;;;;25.13;9.85;;;;;;;15.82;99.76;101274.09;5043881;22;20081;-82
2022/10/29 08:46:04;;;;;;;23.58;10.77;;;;;;;16.00;99.47;101288.84;5015129;28;20147;-78
2022/10/29 08:52:35;;;;;;;20.80;9.60;;;;;;;16.01;99.05;101264.91;5003948;28;20050;-77
2022/10/29 08:55:32;;;;;;;18.98;9.23;;;;;;;16.01;99.35;101272.00;5014007;28;20060;-78
2022/10/29 08:58:19;;;;;;;20.95;10.57;;;;;;;16.18;99.38;101295.44;5016735;28;20077;-77
2022/10/29 09:01:00;;;;;;;27.52;10.20;;;;;;;16.09;99.35;101266.63;4999895;28;20488;-77
2022/10/29 09:04:10;;;;;;;26.52;10.65;;;;;;;16.46;98.41;101298.38;5013166;28;20082;-78
2022/10/29 09:06:52;;;;;;;22.90;9.95;;;;;;;16.47;98.50;101288.63;4932717;28;20550;-81
2022/10/29 09:09:31;;;;;;;26.20;9.95;;;;;;;16.52;97.71;101262.50;5022490;28;20046;-79
2022/10/29 09:12:50;;;;;;;23.27;10.20;;;;;;;16.59;97.10;101260.75;4998448;28;20081;-77
2022/10/29 09:18:49;;;;;;;19.65;9.55;;;;;;;17.43;94.40;101291.25;4983548;28;20062;-78
2022/10/29 09:21:27;;;;;;;20.00;9.90;;;;;;;17.53;93.05;101293.59;4994729;28;20141;-79
2022/10/29 09:24:07;;;;;;;18.92;9.35;;;;;;;17.73;92.42;101296.50;5007568;28;20132;-78
2022/10/29 09:26:49;;;;;;;21.63;9.00;;;;;;;17.57;92.44;101282.44;5014034;28;20049;-77
2022/10/29 09:29:43;;;;;;;22.97;9.60;;;;;;;17.42;92.79;101289.63;5012896;28;20116;-80
2022/10/29 09:32:41;;;;;;;20.20;9.30;;;;;;;17.16;92.95;101261.00;5029925;22;20115;-77
2022/10/29 09:44:43;;;;;;;32.67;10.55;;;;;;;17.58;92.70;101275.34;5016411;22;20138;-83
2022/10/29 09:47:20;;;;;;;23.15;9.63;;;;;;;17.63;91.98;101266.84;5015902;28;20072;-82
2022/10/29 09:49:59;;;;;;;22.45;9.63;;;;;;;17.74;91.19;101263.75;5025704;28;20148;-82
2022/10/29 09:52:30;;;;;;;19.15;9.20;;;;;;;17.75;90.79;101273.31;5025981;28;20053;-82
2022/10/29 09:55:00;;;;;;;21.02;10.05;;;;;;;17.96;90.67;101273.31;5026700;28;20069;-82
2022/10/29 09:57:30;;;;;;;18.83;9.25;;;;;;;18.11;89.91;101267.97;5026880;28;20081;-82
2022/10/29 10:00:01;;;;;;;21.27;9.63;;;;;;;18.18;88.76;101267.03;5024706;28;20091;-82
2022/10/29 10:02:32;;;;;;;22.75;9.68;;;;;;;18.23;88.38;101264.63;5026592;28;20073;-82
2022/10/29 10:05:05;;;;;;;18.70;8.10;;;;;;;18.24;88.13;101273.41;5025790;28;20084;-80
2022/10/29 10:07:31;;;;;;;19.63;9.02;;;;;;;18.31;88.22;101258.38;5040569;28;20050;-82
2022/10/29 10:09:59;;;;;;;18.92;8.57;;;;;;;18.40;87.92;101262.53;5024751;28;20066;-82
2022/10/29 10:12:28;;;;;;;20.08;9.30;;;;;;;18.24;87.59;101244.25;5034163;28;20097;-82
2022/10/29 10:15:16;;;;;;;22.27;9.02;;;;;;;18.26;87.81;101258.13;5028802;28;20050;-80
2022/10/29 10:17:58;;;;;;;22.40;9.05;;;;;;;18.44;87.79;101268.25;5028852;28;20061;-80
2022/10/29 10:20:28;;;;;;;22.15;9.75;;;;;;;18.37;88.19;101262.09;5033386;28;20034;-80
2022/10/29 10:22:54;;;;;;;23.42;9.77;;;;;;;18.34;88.44;101262.47;5032794;28;20101;-80
2022/10/29 10:25:32;;;;;;;22.15;8.93;;;;;;;18.37;88.58;101270.88;5033699;28;20156;-79
2022/10/29 10:28:03;;;;;;;24.30;9.48;;;;;;;18.30;88.52;101267.34;5035010;28;20133;-78
2022/10/29 10:30:31;;;;;;;20.05;9.15;;;;;;;18.35;88.40;101258.81;5036931;28;20053;-80
2022/10/29 10:33:23;;;;;;;16.05;8.90;;;;;;;18.43;88.31;101251.53;5032735;28;20113;-80
2022/10/29 10:35:51;;;;;;;22.33;8.60;;;;;;;18.44;88.18;101244.41;5029703;28;20045;-79
2022/10/29 10:38:19;;;;;;;15.57;8.35;;;;;;;18.49;88.05;101244.63;5030412;28;20315;-79
2022/10/29 10:40:55;;;;;;;22.15;9.88;;;;;;;18.42;88.20;101246.44;5033492;28;20073;-81
2022/10/29 10:43:25;;;;;;;20.35;8.35;;;;;;;18.44;88.80;101241.75;5051168;28;20061;-80
2022/10/29 10:46:00;;;;;;;25.00;9.55;;;;;;;18.49;88.78;101244.63;5047180;28;20053;-79
2022/10/29 10:48:27;;;;;;;21.95;9.13;;;;;;;18.47;88.15;101234.22;5031691;28;20105;-81
2022/10/29 10:51:16;;;;;;;26.60;8.27;;;;;;;18.50;87.80;101230.38;5030559;28;20065;-80
2022/10/29 10:53:43;;;;;;;23.98;8.82;;;;;;;18.64;87.63;101226.03;5025988;28;20048;-78
2022/10/29 10:56:18;;;;;;;20.55;9.10;;;;;;;18.70;87.51;101234.03;5021807;28;20089;-79
2022/10/29 10:58:50;;;;;;;16.50;7.97;;;;;;;18.74;87.20;101232.63;5018956;28;20065;-81
2022/10/29 11:01:23;;;;;;;18.00;8.25;;;;;;;18.67;87.20;101223.81;5020440;28;20228;-80
2022/10/29 11:03:58;;;;;;;16.50;8.35;;;;;;;18.62;87.33;101218.25;5018283;28;20053;-79
2022/10/29 11:06:30;;;;;;;21.50;9.00;;;;;;;18.66;87.51;101214.22;5015408;28;20050;-79
2022/10/29 11:09:00;;;;;;;19.50;8.80;;;;;;;18.66;87.63;101222.16;5011790;28;20133;-81
2022/10/29 11:11:32;;;;;;;21.90;9.15;;;;;;;18.76;88.18;101227.94;5026195;28;20133;-80
2022/10/29 11:14:10;;;;;;;21.38;8.75;;;;;;;18.83;87.50;101220.84;5020333;28;20082;-80
2022/10/29 11:16:43;;;;;;;28.92;9.07;;;;;;;18.86;87.13;101220.47;5020555;28;20185;-80
2022/10/29 11:19:19;;;;;;;22.17;9.00;;;;;;;18.96;86.88;101221.91;5016044;28;20085;-78
2022/10/29 11:21:56;;;;;;;20.60;9.30;;;;;;;19.12;86.20;101213.63;5010869;28;20115;-80
2022/10/29 11:24:30;;;;;;;18.20;8.77;;;;;;;19.05;85.45;101218.91;5017973;28;20092;-80
2022/10/29 11:27:02;;;;;;;21.42;9.35;;;;;;;19.18;85.55;101207.53;5020809;28;20077;-81
2022/10/29 11:29:38;;;;;;;18.60;8.55;;;;;;;19.14;84.92;101201.81;5017775;28;20109;-80
2022/10/29 11:32:15;;;;;;;23.20;8.70;;;;;;;19.32;85.01;101197.78;5020746;28;20125;-80
2022/10/29 11:34:51;;;;;;;21.02;8.50;;;;;;;19.38;85.62;101202.28;5022223;28;20077;-80
2022/10/29 11:37:23;;;;;;;22.05;9.07;;;;;;;19.39;84.51;101204.72;5021801;28;20081;-81
2022/10/29 11:39:54;;;;;;;21.08;8.73;;;;;;;19.31;85.20;101209.41;5023395;28;20372;-81